createdAt,value
2019-03-13T00:01:39.857Z,50941.11
2019-03-13T00:04:10.980Z,50992.11
2019-03-13T00:06:41.610Z,51027.71
2019-03-13T00:09:13.243Z,51131.63
2019-03-13T00:11:43.866Z,51346.21
2019-03-13T00:14:14.794Z,52312.50
2019-03-13T00:16:45.392Z,52972.90
2019-03-13T00:19:16.078Z,53333.96
2019-03-13T00:21:46.689Z,53392.69
2019-03-13T00:24:17.294Z,53394.62
2019-03-13T00:26:48.338Z,53397.51
2019-03-13T00:29:19.116Z,53379.21
2019-03-13T00:31:49.717Z,53381.14
2019-03-13T00:34:20.410Z,53364.77
2019-03-13T00:36:51.014Z,53342.62
2019-03-13T00:39:21.618Z,53353.21
2019-03-13T00:41:52.657Z,53371.51
2019-03-13T00:44:23.585Z,53406.17
2019-03-13T00:46:54.177Z,53392.69
2019-03-13T00:49:24.879Z,53383.06
2019-03-13T00:51:55.511Z,53449.50
2019-03-13T00:54:26.172Z,53460.09
2019-03-13T00:56:56.925Z,53475.50
2019-03-13T00:59:27.518Z,53474.54
2019-03-13T01:02:20.238Z,53446.61
2019-03-13T01:05:28.030Z,53527.50
2019-03-13T01:07:58.729Z,53619.94
2019-03-13T01:10:29.344Z,53704.68
2019-03-13T01:13:00.086Z,53716.23
2019-03-13T01:15:30.704Z,53722.02
2019-03-13T01:18:01.771Z,53731.64
2019-03-13T01:20:32.491Z,53722.98
2019-03-13T01:23:03.196Z,54155.38
2019-03-13T01:25:34.115Z,54988.57
2019-03-13T01:28:04.726Z,55386.45
2019-03-13T01:30:45.191Z,56198.74
2019-03-13T01:33:16.903Z,56609.30
2019-03-13T01:35:51.954Z,56775.07
2019-03-13T01:38:22.541Z,56934.11
2019-03-13T01:48:29.296Z,57521.18
2019-03-13T01:50:59.919Z,57764.12
2019-03-13T01:53:30.642Z,57708.21
2019-03-13T01:56:01.250Z,57788.23
2019-03-13T01:58:32.620Z,57800.76
2019-03-13T02:01:03.450Z,57823.90
2019-03-13T02:03:34.053Z,57742.92
2019-03-13T02:06:04.655Z,57646.50
2019-03-13T02:08:35.363Z,57504.79
2019-03-13T02:11:05.968Z,57362.11
2019-03-13T02:13:36.947Z,57254.14
2019-03-13T02:16:08.001Z,57092.20
2019-03-13T02:18:38.959Z,56988.09
2019-03-13T02:21:09.638Z,56911.94
2019-03-13T02:23:40.574Z,56809.77
2019-03-13T02:26:11.268Z,56737.48
2019-03-13T02:28:41.881Z,56633.39
2019-03-13T02:31:12.824Z,56552.43
2019-03-13T02:33:43.580Z,56461.84
2019-03-13T02:36:14.544Z,56429.07
2019-03-13T02:38:45.161Z,56372.21
2019-03-13T02:41:15.829Z,56244.04
2019-03-13T02:43:46.848Z,56134.18
2019-03-13T02:46:17.477Z,55979.03
2019-03-13T02:48:48.237Z,55783.42
2019-03-13T02:51:18.827Z,55610.95
2019-03-13T02:53:49.470Z,55434.63
2019-03-13T02:56:20.081Z,55228.45
2019-03-13T02:58:50.692Z,55043.48
2019-03-13T03:01:43.327Z,54883.57
2019-03-13T03:04:14.048Z,54759.30
2019-03-13T03:06:44.631Z,54565.69
2019-03-13T03:09:15.252Z,54461.66
2019-03-13T03:11:45.928Z,54366.31
2019-03-13T03:14:16.544Z,54330.67
2019-03-13T03:20:47.313Z,54170.79
2019-03-13T03:23:17.891Z,54127.45
2019-03-13T03:25:48.588Z,54046.55
2019-03-13T03:28:19.150Z,54068.71
2019-03-13T03:30:49.827Z,54099.52
2019-03-13T03:33:20.534Z,54114.93
2019-03-13T03:35:51.401Z,54090.86
2019-03-13T03:38:22.474Z,54023.44
2019-03-13T03:40:53.067Z,54014.77
2019-03-13T03:43:39.271Z,53950.25
2019-03-13T03:45:56.270Z,53943.51
2019-03-13T03:48:26.861Z,53847.20
2019-03-13T03:50:57.521Z,53821.20
2019-03-13T03:53:28.412Z,53822.16
2019-03-13T03:55:59.315Z,53802.91
2019-03-13T03:58:30.188Z,53806.76
2019-03-13T04:01:00.810Z,53880.91
2019-03-13T04:03:32.038Z,53837.57
2019-03-13T04:06:02.962Z,53870.32
2019-03-13T04:08:37.556Z,53902.10
2019-03-13T04:11:05.819Z,53948.32
2019-03-13T04:13:36.402Z,53980.11
2019-03-13T04:16:07.108Z,54110.12
2019-03-13T04:18:37.760Z,54204.50
2019-03-13T04:21:08.358Z,54348.01
2019-03-13T04:23:38.976Z,54418.32
2019-03-13T04:26:12.818Z,54529.09
2019-03-13T04:28:42.893Z,54756.41
2019-03-13T04:31:13.481Z,55117.66
2019-03-13T04:33:44.461Z,55466.42
2019-03-13T04:36:15.007Z,55693.81
2019-03-13T04:38:45.877Z,55900.98
2019-03-13T04:41:16.578Z,56042.63
2019-03-13T04:43:47.134Z,56146.70
2019-03-13T04:46:17.726Z,56251.75
2019-03-13T04:48:48.675Z,56292.22
2019-03-13T04:51:19.240Z,56245.96
2019-03-13T04:53:50.112Z,56242.11
2019-03-13T04:56:20.874Z,56309.57
2019-03-13T04:58:51.452Z,56323.06
2019-03-13T05:01:22.044Z,56313.42
2019-03-13T05:03:53.243Z,56266.20
2019-03-13T05:06:24.824Z,56178.50
2019-03-13T05:09:18.130Z,56016.61
2019-03-13T05:11:49.016Z,55989.63
2019-03-13T05:14:19.936Z,55922.18
2019-03-13T05:16:51.005Z,55863.40
2019-03-13T05:19:21.876Z,55893.27
2019-03-13T05:21:52.836Z,55855.69
2019-03-13T05:24:23.782Z,55805.58
2019-03-13T05:26:54.462Z,55762.22
2019-03-13T05:29:25.039Z,55741.02
2019-03-13T05:31:55.631Z,55653.34
2019-03-13T05:34:26.355Z,55646.60
2019-03-13T05:36:56.938Z,55609.98
2019-03-13T05:39:27.507Z,55554.10
2019-03-13T05:41:58.231Z,55518.45
2019-03-13T05:44:28.826Z,55450.04
2019-03-13T05:46:59.759Z,55414.39
2019-03-13T05:49:34.906Z,55354.66
2019-03-13T05:52:06.102Z,55279.51
2019-03-13T05:54:36.684Z,55077.20
2019-03-13T05:57:07.427Z,54986.64
2019-03-13T05:59:37.993Z,54775.68
2019-03-13T06:02:08.556Z,54663.94
2019-03-13T06:04:39.581Z,54507.90
2019-03-13T06:07:10.520Z,54407.73
2019-03-13T06:09:41.123Z,54364.38
2019-03-13T06:12:11.780Z,54295.04
2019-03-13T06:14:42.349Z,54248.80
2019-03-13T06:17:12.943Z,54190.05
2019-03-13T06:19:43.629Z,54243.99
2019-03-13T06:22:14.158Z,54220.87
2019-03-13T06:24:44.696Z,54228.58
2019-03-13T06:27:15.164Z,54253.62
2019-03-13T06:29:46.366Z,54270.96
2019-03-13T06:32:16.844Z,54250.73
2019-03-13T06:34:47.964Z,54292.15
2019-03-13T06:37:18.651Z,54302.74
2019-03-13T06:39:49.198Z,54334.52
2019-03-13T06:42:19.640Z,54287.33
2019-03-13T06:44:50.318Z,54329.71
2019-03-13T06:47:21.234Z,54307.56
2019-03-13T06:49:52.271Z,54287.33
2019-03-13T06:52:22.823Z,54265.18
2019-03-13T06:54:53.681Z,54234.36
2019-03-13T06:57:24.757Z,54146.71
2019-03-13T07:00:13.200Z,54185.24
2019-03-13T07:02:58.675Z,54130.34
2019-03-13T07:05:48.564Z,54073.52
2019-03-13T07:08:37.078Z,54023.44
2019-03-13T07:11:25.554Z,54008.03
2019-03-13T07:14:02.371Z,54043.66
2019-03-13T07:17:07.352Z,53990.70
2019-03-13T07:19:55.675Z,53991.66
2019-03-13T07:22:37.745Z,53901.13
2019-03-13T07:25:19.151Z,53907.87
2019-03-13T07:27:59.074Z,53862.61
2019-03-13T07:30:38.340Z,53832.76
2019-03-13T07:33:30.886Z,53769.20
2019-03-13T07:36:26.413Z,53714.31
2019-03-13T07:39:13.744Z,53678.68
2019-03-13T07:42:18.426Z,53596.83
2019-03-13T07:45:06.367Z,53591.05
2019-03-13T07:47:55.205Z,53527.50
2019-03-13T07:50:43.360Z,53414.84
2019-03-13T07:53:42.378Z,53355.14
2019-03-13T07:56:42.391Z,53178.94
2019-03-13T07:59:44.528Z,53148.13
2019-03-13T08:02:34.093Z,53099.02
2019-03-13T08:05:24.450Z,53064.36
2019-03-13T08:08:23.222Z,53062.44
2019-03-13T08:11:18.847Z,53031.63
2019-03-13T08:14:21.920Z,53035.48
2019-03-13T08:17:10.401Z,52876.62
2019-03-13T08:20:15.125Z,52861.22
2019-03-13T08:23:07.660Z,52782.28
2019-03-13T08:26:03.795Z,52686.97
2019-03-13T08:28:43.918Z,52593.59
2019-03-13T08:31:36.986Z,52469.41
2019-03-13T08:34:26.046Z,52414.54
2019-03-13T08:37:28.204Z,52380.85
2019-03-13T08:40:16.440Z,52349.08
2019-03-13T08:43:09.656Z,52260.53
2019-03-13T08:45:59.710Z,52227.80
2019-03-13T08:49:05.868Z,52180.63
2019-03-13T08:51:47.272Z,52201.81
2019-03-13T08:54:33.144Z,52238.39
2019-03-13T08:57:22.963Z,52237.43
2019-03-13T09:00:20.190Z,52265.34
2019-03-13T09:03:08.758Z,52237.43
2019-03-13T09:05:55.449Z,52280.74
2019-03-13T09:08:48.793Z,52319.24
2019-03-13T09:11:27.833Z,52310.58
2019-03-13T09:14:16.409Z,52356.79
2019-03-13T09:17:11.994Z,52322.13
2019-03-13T09:19:59.209Z,52347.16
2019-03-13T09:23:01.280Z,52355.82
2019-03-13T09:25:44.309Z,52414.54
2019-03-13T09:28:33.850Z,52470.37
2019-03-13T09:31:29.811Z,52548.35
2019-03-13T09:34:25.713Z,52693.71
2019-03-13T09:37:07.405Z,52892.03
2019-03-13T09:39:55.526Z,53345.51
2019-03-13T09:42:54.266Z,53664.23
2019-03-13T09:45:46.682Z,53898.25
2019-03-13T09:48:40.788Z,53958.92
2019-03-13T09:51:45.929Z,53907.87
2019-03-13T09:54:44.358Z,53823.13
2019-03-13T09:57:33.963Z,53559.28
2019-03-13T10:00:31.752Z,53408.10
2019-03-13T10:03:27.792Z,53121.17
2019-03-13T10:06:15.598Z,53001.78
2019-03-13T10:09:04.490Z,52808.27
2019-03-13T10:11:45.330Z,52736.07
2019-03-13T10:14:47.652Z,52693.71
2019-03-13T10:17:30.297Z,52686.01
2019-03-13T10:20:18.931Z,52614.77
2019-03-13T10:23:14.903Z,52481.92
2019-03-13T10:25:52.915Z,52438.61
2019-03-13T10:28:45.375Z,52291.33
2019-03-13T10:31:41.575Z,52255.71
2019-03-13T10:34:40.277Z,52199.88
2019-03-13T10:37:25.955Z,52175.82
2019-03-13T10:40:13.999Z,52142.13
2019-03-13T10:43:00.996Z,52137.32
2019-03-13T10:45:46.313Z,52088.23
2019-03-13T10:48:41.697Z,52060.32
2019-03-13T10:51:28.006Z,52057.43
2019-03-13T10:54:07.706Z,52033.37
2019-03-13T10:56:53.504Z,51972.73
2019-03-13T10:59:40.093Z,51979.47
2019-03-13T11:02:28.430Z,51950.59
2019-03-13T11:05:26.910Z,51908.25
2019-03-13T11:08:26.676Z,51712.87
2019-03-13T11:11:03.744Z,51877.45
2019-03-13T11:14:14.883Z,51947.71
2019-03-13T11:17:02.806Z,52014.12
2019-03-13T11:19:49.646Z,52168.12
2019-03-13T11:22:33.832Z,52291.33
2019-03-13T11:25:12.436Z,52389.51
2019-03-13T11:28:00.897Z,52470.37
2019-03-13T11:30:49.250Z,52505.99
2019-03-13T11:33:35.619Z,52489.62
2019-03-13T11:36:26.695Z,52494.44
2019-03-13T11:39:20.813Z,52445.34
2019-03-13T11:42:09.533Z,52399.14
2019-03-13T11:44:57.854Z,52174.86
2019-03-13T11:47:42.671Z,52044.92
2019-03-13T11:50:32.510Z,52105.56
2019-03-13T11:53:18.976Z,52051.66
2019-03-13T11:56:07.142Z,51962.14
2019-03-13T11:58:56.904Z,51791.79
2019-03-13T12:01:55.905Z,51623.37
2019-03-13T12:04:43.837Z,51577.18
2019-03-13T12:07:36.230Z,51486.71
2019-03-13T12:10:42.867Z,51578.14
2019-03-13T12:13:32.632Z,51556.00
2019-03-13T12:16:20.143Z,51648.39
2019-03-13T12:19:16.260Z,51634.92
2019-03-13T12:21:54.376Z,51644.54
2019-03-13T12:24:43.916Z,51636.84
2019-03-13T12:27:32.246Z,51621.45
2019-03-13T12:30:17.983Z,51598.34
2019-03-13T12:33:20.272Z,51483.82
2019-03-13T12:36:13.040Z,51468.43
2019-03-13T12:38:50.619Z,51506.92
2019-03-13T12:41:52.490Z,51596.42
2019-03-13T12:44:44.868Z,51635.88
2019-03-13T12:47:43.625Z,51575.25
2019-03-13T12:50:34.147Z,51458.80
2019-03-13T12:53:22.002Z,51415.50
2019-03-13T12:56:08.018Z,51351.99
2019-03-13T12:58:54.528Z,51294.25
2019-03-13T13:01:50.268Z,51340.44
2019-03-13T13:04:38.546Z,51243.25
2019-03-13T13:07:30.863Z,51303.87
2019-03-13T13:10:35.884Z,51285.59
2019-03-13T13:13:24.249Z,51298.10
2019-03-13T13:16:28.853Z,51434.75
2019-03-13T13:18:59.721Z,51566.59
2019-03-13T13:21:30.611Z,51670.52
2019-03-13T13:24:01.277Z,51748.48
2019-03-13T13:26:31.840Z,51842.80
2019-03-13T13:29:02.792Z,51869.75
2019-03-13T13:31:33.598Z,51815.85
2019-03-13T13:34:04.366Z,51808.15
2019-03-13T13:36:34.920Z,51725.38
2019-03-13T13:39:07.497Z,51678.22
2019-03-13T13:41:38.235Z,51695.55
2019-03-13T13:44:09.157Z,51570.44
2019-03-13T13:46:44.515Z,51570.44
2019-03-13T13:49:14.915Z,51504.04
2019-03-13T13:51:45.988Z,51536.75
2019-03-13T13:54:16.808Z,51512.70
2019-03-13T13:56:47.426Z,51489.60
2019-03-13T13:59:18.042Z,51450.14
2019-03-13T14:01:48.651Z,51449.18
2019-03-13T14:04:19.284Z,51475.16
2019-03-13T14:06:49.897Z,51480.94
2019-03-13T14:09:20.680Z,51563.70
2019-03-13T14:11:51.413Z,51588.72
2019-03-13T14:14:22.390Z,51610.86
2019-03-13T14:16:53.499Z,51724.42
2019-03-13T14:19:24.584Z,51785.05
2019-03-13T14:21:55.197Z,51818.74
2019-03-13T14:24:25.825Z,51778.32
2019-03-13T14:26:56.535Z,51835.10
2019-03-13T14:29:27.156Z,51802.38
2019-03-13T14:31:57.777Z,51812.96
2019-03-13T14:34:28.409Z,51735.01
2019-03-13T14:36:59.676Z,51787.94
2019-03-13T14:39:30.661Z,51857.23
2019-03-13T14:42:01.903Z,51877.45
2019-03-13T14:44:32.855Z,51943.86
2019-03-13T14:47:03.603Z,51982.36
2019-03-13T14:49:34.352Z,52015.08
2019-03-13T14:52:04.993Z,52036.25
2019-03-13T14:54:35.617Z,52094.97
2019-03-13T14:57:06.383Z,52115.18
2019-03-13T14:59:37.293Z,52223.95
2019-03-13T15:02:08.224Z,52411.65
2019-03-13T15:04:38.950Z,52555.08
2019-03-13T15:07:09.553Z,52689.86
2019-03-13T15:09:40.159Z,52782.28
2019-03-13T15:12:10.969Z,52668.68
2019-03-13T15:14:41.973Z,52571.45
2019-03-13T15:17:12.595Z,52483.85
2019-03-13T15:19:43.351Z,52465.56
2019-03-13T15:22:13.995Z,52330.79
2019-03-13T15:24:44.608Z,52292.29
2019-03-13T15:27:15.373Z,52299.99
2019-03-13T15:29:45.986Z,52314.43
2019-03-13T15:32:16.927Z,52310.58
2019-03-13T15:34:47.549Z,52346.20
2019-03-13T15:37:18.187Z,52351.01
2019-03-13T15:39:48.932Z,52377.96
2019-03-13T15:42:19.553Z,52480.96
2019-03-13T15:44:50.156Z,52585.89
2019-03-13T15:47:21.053Z,52867.96
2019-03-13T15:49:51.643Z,53041.26
2019-03-13T15:52:22.547Z,53234.78
2019-03-13T15:54:53.640Z,53329.14
2019-03-13T15:57:24.257Z,53494.76
2019-03-13T15:59:55.338Z,54161.16
2019-03-13T16:02:26.091Z,54213.17
2019-03-13T16:04:56.812Z,54263.25
2019-03-13T16:07:27.452Z,54288.29
2019-03-13T16:09:58.595Z,54269.03
2019-03-13T16:12:29.212Z,54243.03
2019-03-13T16:14:59.823Z,54257.48
2019-03-13T16:17:30.747Z,54267.11
2019-03-13T16:20:01.365Z,54323.93
2019-03-13T16:22:32.066Z,54378.83
2019-03-13T16:25:02.876Z,54415.43
2019-03-13T16:27:33.779Z,54476.11
2019-03-13T16:30:06.110Z,54473.22
2019-03-13T16:32:43.743Z,54550.28
2019-03-13T16:35:09.785Z,54506.93
2019-03-13T16:37:40.412Z,54541.61
2019-03-13T16:40:13.273Z,54587.84
2019-03-13T16:42:43.891Z,54639.86
2019-03-13T16:45:15.434Z,54756.41
2019-03-13T16:47:46.223Z,54889.35
2019-03-13T16:50:19.573Z,55012.65
2019-03-13T16:52:50.213Z,55118.62
2019-03-13T16:55:21.617Z,55252.54
2019-03-13T16:57:52.224Z,55353.70
2019-03-13T17:00:24.995Z,55477.98
2019-03-13T17:02:55.745Z,55640.82
2019-03-13T17:05:26.757Z,55710.19
2019-03-13T17:07:57.361Z,55785.35
2019-03-13T17:10:28.293Z,55889.41
2019-03-13T17:12:59.193Z,55951.09
2019-03-13T17:15:29.894Z,56140.92
2019-03-13T17:18:00.520Z,56258.49
2019-03-13T17:20:31.126Z,56417.51
2019-03-13T17:23:01.722Z,56537.98
2019-03-13T17:25:32.831Z,56672.91
2019-03-13T17:28:03.876Z,56749.05
2019-03-13T17:30:34.717Z,56823.27
2019-03-13T17:33:05.369Z,56836.76
2019-03-13T17:35:36.365Z,56893.63
2019-03-13T17:38:06.990Z,57024.72
2019-03-13T17:40:38.848Z,57055.57
2019-03-13T17:43:10.097Z,57105.69
2019-03-13T17:45:40.684Z,57088.34
2019-03-13T17:48:11.409Z,57065.20
2019-03-13T17:50:42.002Z,57088.34
2019-03-13T17:53:13.003Z,56965.92
2019-03-13T17:55:43.756Z,56833.87
2019-03-13T17:58:14.368Z,56782.79
2019-03-13T18:00:50.529Z,56716.28
2019-03-13T18:03:22.353Z,56704.71
2019-03-13T18:05:53.143Z,56653.63
2019-03-13T18:08:23.898Z,56595.80
2019-03-13T18:10:54.488Z,56503.28
2019-03-13T18:13:25.093Z,56479.18
2019-03-13T18:15:55.796Z,56365.46
2019-03-13T18:18:26.402Z,56323.06
2019-03-13T18:20:57.047Z,56269.09
2019-03-13T18:23:27.835Z,56215.12
2019-03-13T18:25:58.781Z,56149.59
2019-03-13T18:28:29.397Z,56142.85
2019-03-13T18:31:01.984Z,56074.43
2019-03-13T18:33:32.435Z,56044.55
2019-03-13T18:36:03.341Z,55990.59
2019-03-13T18:38:34.248Z,55961.68
2019-03-13T18:41:04.940Z,55886.52
2019-03-13T18:43:36.218Z,55806.55
2019-03-13T18:46:07.164Z,55709.23
2019-03-13T18:48:37.883Z,55609.02
2019-03-13T18:51:08.476Z,55532.90
2019-03-13T18:53:39.083Z,55451.00
2019-03-13T18:56:09.765Z,55332.50
2019-03-13T18:58:40.383Z,55245.79
2019-03-13T19:01:10.950Z,55237.12
2019-03-13T19:03:41.684Z,55163.90
2019-03-13T19:06:12.297Z,55200.51
2019-03-13T19:08:42.906Z,55101.28
2019-03-13T19:11:14.126Z,55190.88
2019-03-13T19:13:44.707Z,55218.82
2019-03-13T19:16:15.286Z,55214.00
2019-03-13T19:18:46.324Z,55263.13
2019-03-13T19:21:17.347Z,55287.22
2019-03-13T19:23:48.041Z,55265.06
2019-03-13T19:26:19.095Z,55319.01
2019-03-13T19:28:50.035Z,55363.33
2019-03-13T19:31:20.967Z,55402.83
2019-03-13T19:33:51.796Z,55376.82
2019-03-13T19:36:22.520Z,55398.02
2019-03-13T19:38:53.187Z,55386.45
2019-03-13T19:41:23.785Z,55354.66
2019-03-13T19:43:54.539Z,55695.73
2019-03-13T19:46:25.129Z,55635.03
2019-03-13T19:48:55.744Z,55553.14
2019-03-13T19:51:26.405Z,55492.43
2019-03-13T19:53:57.014Z,55346.95
2019-03-13T19:56:27.598Z,55336.36
2019-03-13T19:58:58.711Z,55290.11
2019-03-13T20:01:29.289Z,55272.77
2019-03-13T20:03:59.893Z,55268.91
2019-03-13T20:06:41.710Z,55221.71
2019-03-13T20:09:02.839Z,55241.94
2019-03-13T20:11:33.416Z,55240.98
2019-03-13T20:14:04.356Z,55172.57
2019-03-13T20:16:35.396Z,55126.33
2019-03-13T20:19:06.305Z,55188.95
2019-03-13T20:21:36.899Z,55160.05
2019-03-13T20:24:07.511Z,55114.77
2019-03-13T20:26:38.104Z,55106.10
2019-03-13T20:29:09.329Z,55093.57
2019-03-13T20:31:39.969Z,55074.31
2019-03-13T20:34:10.604Z,55035.77
2019-03-13T20:36:41.250Z,54999.17
2019-03-13T20:39:12.304Z,54955.82
2019-03-13T20:41:42.935Z,54948.11
2019-03-13T20:44:14.218Z,54924.03
2019-03-13T20:46:44.826Z,54938.48
2019-03-13T20:49:15.673Z,54901.87
2019-03-13T20:51:46.267Z,54899.95
2019-03-13T20:54:17.248Z,54876.82
2019-03-13T20:56:47.869Z,54851.78
2019-03-13T20:59:18.757Z,54831.55
2019-03-13T21:01:49.827Z,54772.79
2019-03-13T21:04:20.444Z,54737.15
2019-03-13T21:06:51.507Z,54485.75
2019-03-13T21:09:22.537Z,54450.11
2019-03-13T21:11:53.798Z,54394.24
2019-03-13T21:14:24.388Z,54348.97
2019-03-13T21:16:55.523Z,54339.34
2019-03-13T21:19:26.620Z,54333.56
2019-03-13T21:21:57.757Z,54290.22
2019-03-13T21:24:29.057Z,54252.66
2019-03-13T21:26:59.880Z,54234.36
2019-03-13T21:29:30.633Z,54252.66
2019-03-13T21:32:01.375Z,54226.65
2019-03-13T21:34:32.743Z,54153.46
2019-03-13T21:37:03.930Z,54148.64
2019-03-13T21:39:34.673Z,54104.34
2019-03-13T21:42:05.605Z,54142.86
2019-03-13T21:44:36.166Z,54116.86
2019-03-13T21:47:07.747Z,54075.45
2019-03-13T21:49:38.512Z,54074.48
2019-03-13T21:52:09.331Z,54055.22
2019-03-13T21:54:40.250Z,54039.81
2019-03-13T21:57:10.907Z,54072.56
2019-03-13T21:59:42.033Z,54051.37
2019-03-13T22:02:13.009Z,53994.55
2019-03-13T22:04:43.849Z,53987.81
2019-03-13T22:07:15.246Z,53984.92
2019-03-13T22:09:46.199Z,53975.29
2019-03-13T22:12:16.834Z,53972.40
2019-03-13T22:14:47.533Z,53967.58
2019-03-13T22:17:19.298Z,53976.25
2019-03-13T22:19:50.336Z,53985.88
2019-03-13T22:22:21.720Z,53946.39
2019-03-13T22:24:52.692Z,53967.58
2019-03-13T22:27:23.396Z,53975.29
2019-03-13T22:29:54.102Z,54020.55
2019-03-13T22:32:24.779Z,54012.85
2019-03-13T22:34:55.776Z,54012.85
2019-03-13T22:37:26.816Z,54037.89
2019-03-13T22:39:57.625Z,54020.55
2019-03-13T22:42:30.794Z,54021.52
2019-03-13T22:45:01.245Z,54082.19
2019-03-13T22:47:41.905Z,54082.19
2019-03-13T22:50:04.928Z,54115.90
2019-03-13T22:52:35.671Z,54105.30
2019-03-13T22:55:07.273Z,54099.52
2019-03-13T22:57:37.938Z,54071.59
2019-03-13T23:00:25.934Z,54153.46
2019-03-13T23:02:57.087Z,54163.09
2019-03-13T23:05:28.468Z,54190.05
2019-03-13T23:07:59.609Z,54158.27
2019-03-13T23:10:34.138Z,54209.32
2019-03-13T23:13:05.092Z,54229.54
2019-03-13T23:15:35.848Z,54244.95
2019-03-13T23:18:07.198Z,54248.80
2019-03-13T23:20:37.979Z,54246.88
2019-03-13T23:23:08.746Z,54241.10
2019-03-13T23:25:39.540Z,54224.73
2019-03-13T23:28:10.659Z,54278.66
2019-03-13T23:30:41.396Z,54280.59
2019-03-13T23:33:11.996Z,54267.11
2019-03-13T23:35:42.785Z,54279.63
2019-03-13T23:38:13.626Z,54264.21
2019-03-13T23:40:44.696Z,54272.88
2019-03-13T23:43:15.365Z,54300.82
2019-03-13T23:45:45.985Z,54302.74
2019-03-13T23:48:17.245Z,54316.23
2019-03-13T23:50:47.985Z,54263.25
2019-03-13T23:53:19.431Z,54268.07
2019-03-13T23:55:50.052Z,54283.48
2019-03-13T23:58:21.720Z,54268.07
